Terminal Aerodrome Forecast
Issued by NWS Cleveland, OH

Home | Current Version | Previous Version | Graphics & Text | Print | Product List | Glossary On
Versions: 1 2 3 4 5 6 7 8 9 10 11 12 13 14 15 16 17
000
FTUS41 KCLE 301700
TAFERI
TAF
KERI 301738Z 3018/3118 29008KT P6SM SCT030
     FM310000 VRB04KT P6SM VCSH BKN040
     FM310800 20004KT P6SM BKN040
      TEMPO 3108/3112 5SM -SHRA OVC040
     FM311400 25008KT P6SM BKN040=

USA.gov is the U.S. government's official web portal to all federal, state and local government web resources and services.